sensor_id;sensor_type;location;lat;lon;timestamp;P1;durP1;ratioP1;P2;durP2;ratioP2
77888;SDS011;67082;41.704;44.768;2024-03-25T00:00:00;24.67;;;14.25;;
77888;SDS011;67082;41.704;44.768;2024-03-25T00:02:58;27.85;;;15.95;;
77888;SDS011;67082;41.704;44.768;2024-03-25T00:05:25;25.98;;;15.23;;
77888;SDS011;67082;41.704;44.768;2024-03-25T00:07:52;27.83;;;15.60;;
77888;SDS011;67082;41.704;44.768;2024-03-25T00:10:21;29.90;;;16.42;;
77888;SDS011;67082;41.704;44.768;2024-03-25T00:12:48;26.05;;;16.48;;
77888;SDS011;67082;41.704;44.768;2024-03-25T00:15:19;26.88;;;16.58;;
77888;SDS011;67082;41.704;44.768;2024-03-25T00:17:47;27.02;;;16.17;;
77888;SDS011;67082;41.704;44.768;2024-03-25T00:20:14;28.25;;;16.15;;
77888;SDS011;67082;41.704;44.768;2024-03-25T00:22:42;25.48;;;15.48;;
77888;SDS011;67082;41.704;44.768;2024-03-25T00:25:09;26.10;;;15.90;;
77888;SDS011;67082;41.704;44.768;2024-03-25T00:27:36;23.77;;;14.45;;
77888;SDS011;67082;41.704;44.768;2024-03-25T00:30:03;22.58;;;13.40;;
77888;SDS011;67082;41.704;44.768;2024-03-25T00:32:34;25.48;;;14.55;;
77888;SDS011;67082;41.704;44.768;2024-03-25T00:35:01;26.88;;;14.98;;
77888;SDS011;67082;41.704;44.768;2024-03-25T00:37:31;23.67;;;14.73;;
77888;SDS011;67082;41.704;44.768;2024-03-25T00:39:58;26.10;;;15.30;;
77888;SDS011;67082;41.704;44.768;2024-03-25T00:42:25;25.73;;;15.20;;
77888;SDS011;67082;41.704;44.768;2024-03-25T00:44:53;26.15;;;15.07;;
77888;SDS011;67082;41.704;44.768;2024-03-25T00:47:20;27.40;;;15.70;;
77888;SDS011;67082;41.704;44.768;2024-03-25T00:49:47;25.95;;;15.25;;
77888;SDS011;67082;41.704;44.768;2024-03-25T00:52:15;22.73;;;13.70;;
77888;SDS011;67082;41.704;44.768;2024-03-25T00:54:41;22.50;;;13.73;;
77888;SDS011;67082;41.704;44.768;2024-03-25T00:57:08;27.90;;;14.98;;
77888;SDS011;67082;41.704;44.768;2024-03-25T00:59:38;26.63;;;15.02;;
77888;SDS011;67082;41.704;44.768;2024-03-25T01:02:05;27.50;;;15.43;;
77888;SDS011;67082;41.704;44.768;2024-03-25T01:04:32;26.23;;;15.70;;
77888;SDS011;67082;41.704;44.768;2024-03-25T01:06:59;25.92;;;14.98;;
77888;SDS011;67082;41.704;44.768;2024-03-25T01:09:26;25.40;;;15.48;;
77888;SDS011;67082;41.704;44.768;2024-03-25T01:11:53;28.52;;;15.95;;
77888;SDS011;67082;41.704;44.768;2024-03-25T01:14:20;30.50;;;17.13;;
77888;SDS011;67082;41.704;44.768;2024-03-25T01:16:49;28.92;;;16.80;;
77888;SDS011;67082;41.704;44.768;2024-03-25T01:19:15;32.05;;;17.88;;
77888;SDS011;67082;41.704;44.768;2024-03-25T01:21:43;27.27;;;16.77;;
77888;SDS011;67082;41.704;44.768;2024-03-25T01:24:12;26.15;;;16.55;;
77888;SDS011;67082;41.704;44.768;2024-03-25T01:26:40;29.17;;;17.05;;
77888;SDS011;67082;41.704;44.768;2024-03-25T01:29:07;30.00;;;17.35;;
77888;SDS011;67082;41.704;44.768;2024-03-25T01:31:34;30.67;;;17.67;;
77888;SDS011;67082;41.704;44.768;2024-03-25T01:34:01;31.35;;;17.05;;
77888;SDS011;67082;41.704;44.768;2024-03-25T01:36:28;33.58;;;19.08;;
77888;SDS011;67082;41.704;44.768;2024-03-25T01:38:55;29.23;;;17.10;;
77888;SDS011;67082;41.704;44.768;2024-03-25T01:41:22;33.35;;;18.27;;
77888;SDS011;67082;41.704;44.768;2024-03-25T01:43:50;32.00;;;18.98;;
77888;SDS011;67082;41.704;44.768;2024-03-25T01:46:17;33.72;;;19.40;;
77888;SDS011;67082;41.704;44.768;2024-03-25T01:48:45;33.17;;;19.33;;
77888;SDS011;67082;41.704;44.768;2024-03-25T01:51:14;34.92;;;19.55;;
77888;SDS011;67082;41.704;44.768;2024-03-25T01:53:44;25.05;;;16.33;;
77888;SDS011;67082;41.704;44.768;2024-03-25T01:56:13;26.02;;;14.65;;
77888;SDS011;67082;41.704;44.768;2024-03-25T01:58:41;27.58;;;15.75;;
77888;SDS011;67082;41.704;44.768;2024-03-25T02:01:09;32.00;;;18.23;;
77888;SDS011;67082;41.704;44.768;2024-03-25T02:03:43;34.47;;;17.40;;
77888;SDS011;67082;41.704;44.768;2024-03-25T02:06:15;31.00;;;17.95;;
77888;SDS011;67082;41.704;44.768;2024-03-25T02:08:43;28.30;;;17.02;;
77888;SDS011;67082;41.704;44.768;2024-03-25T02:11:11;31.52;;;18.40;;
77888;SDS011;67082;41.704;44.768;2024-03-25T02:13:39;29.33;;;17.17;;
77888;SDS011;67082;41.704;44.768;2024-03-25T02:16:07;28.35;;;16.83;;
77888;SDS011;67082;41.704;44.768;2024-03-25T02:18:54;29.20;;;17.33;;
77888;SDS011;67082;41.704;44.768;2024-03-25T02:21:21;30.80;;;18.40;;
77888;SDS011;67082;41.704;44.768;2024-03-25T02:23:48;30.15;;;17.40;;
77888;SDS011;67082;41.704;44.768;2024-03-25T02:26:19;26.98;;;15.43;;
77888;SDS011;67082;41.704;44.768;2024-03-25T02:28:46;28.88;;;16.77;;
77888;SDS011;67082;41.704;44.768;2024-03-25T02:31:13;27.13;;;15.95;;
77888;SDS011;67082;41.704;44.768;2024-03-25T02:33:40;26.67;;;15.60;;
77888;SDS011;67082;41.704;44.768;2024-03-25T02:36:08;26.48;;;15.80;;
77888;SDS011;67082;41.704;44.768;2024-03-25T02:38:36;29.38;;;16.63;;
77888;SDS011;67082;41.704;44.768;2024-03-25T02:41:03;28.88;;;15.45;;
77888;SDS011;67082;41.704;44.768;2024-03-25T02:43:31;26.77;;;15.32;;
77888;SDS011;67082;41.704;44.768;2024-03-25T02:45:58;30.67;;;16.20;;
77888;SDS011;67082;41.704;44.768;2024-03-25T02:48:25;30.60;;;16.45;;
77888;SDS011;67082;41.704;44.768;2024-03-25T02:50:52;26.85;;;15.70;;
77888;SDS011;67082;41.704;44.768;2024-03-25T02:53:19;26.35;;;16.13;;
77888;SDS011;67082;41.704;44.768;2024-03-25T02:55:46;28.20;;;16.05;;
77888;SDS011;67082;41.704;44.768;2024-03-25T02:58:16;14.70;;;8.85;;
77888;SDS011;67082;41.704;44.768;2024-03-25T03:04:07;7.35;;;4.85;;
77888;SDS011;67082;41.704;44.768;2024-03-25T03:06:53;11.65;;;6.85;;
77888;SDS011;67082;41.704;44.768;2024-03-25T03:09:42;6.72;;;3.92;;
77888;SDS011;67082;41.704;44.768;2024-03-25T03:12:09;8.63;;;4.90;;
77888;SDS011;67082;41.704;44.768;2024-03-25T03:14:36;8.95;;;4.65;;
77888;SDS011;67082;41.704;44.768;2024-03-25T03:17:03;8.13;;;5.50;;
77888;SDS011;67082;41.704;44.768;2024-03-25T03:19:31;8.98;;;5.75;;
77888;SDS011;67082;41.704;44.768;2024-03-25T03:21:58;8.40;;;5.10;;
77888;SDS011;67082;41.704;44.768;2024-03-25T03:24:25;8.18;;;4.78;;
77888;SDS011;67082;41.704;44.768;2024-03-25T03:26:52;7.22;;;4.32;;
77888;SDS011;67082;41.704;44.768;2024-03-25T03:29:22;7.53;;;4.25;;
77888;SDS011;67082;41.704;44.768;2024-03-25T03:31:49;4.88;;;2.67;;
77888;SDS011;67082;41.704;44.768;2024-03-25T03:34:16;3.92;;;2.30;;
77888;SDS011;67082;41.704;44.768;2024-03-25T03:36:43;4.10;;;2.20;;
77888;SDS011;67082;41.704;44.768;2024-03-25T03:39:10;4.38;;;1.90;;
77888;SDS011;67082;41.704;44.768;2024-03-25T03:41:37;4.25;;;2.45;;
77888;SDS011;67082;41.704;44.768;2024-03-25T03:44:04;4.50;;;2.30;;
77888;SDS011;67082;41.704;44.768;2024-03-25T03:46:31;3.55;;;2.00;;
77888;SDS011;67082;41.704;44.768;2024-03-25T03:48:58;4.00;;;2.05;;
77888;SDS011;67082;41.704;44.768;2024-03-25T03:51:25;3.47;;;2.40;;
77888;SDS011;67082;41.704;44.768;2024-03-25T03:53:53;8.18;;;3.70;;
77888;SDS011;67082;41.704;44.768;2024-03-25T03:56:20;6.82;;;4.30;;
77888;SDS011;67082;41.704;44.768;2024-03-25T03:58:47;8.13;;;4.38;;
77888;SDS011;67082;41.704;44.768;2024-03-25T04:01:15;8.45;;;4.82;;
77888;SDS011;67082;41.704;44.768;2024-03-25T04:03:43;7.18;;;4.32;;
77888;SDS011;67082;41.704;44.768;2024-03-25T04:06:12;8.40;;;5.38;;
77888;SDS011;67082;41.704;44.768;2024-03-25T04:08:39;10.07;;;5.63;;
77888;SDS011;67082;41.704;44.768;2024-03-25T04:11:07;9.07;;;5.50;;
77888;SDS011;67082;41.704;44.768;2024-03-25T04:13:34;9.00;;;5.30;;
77888;SDS011;67082;41.704;44.768;2024-03-25T04:16:05;5.97;;;3.55;;
77888;SDS011;67082;41.704;44.768;2024-03-25T04:18:32;8.18;;;4.30;;
77888;SDS011;67082;41.704;44.768;2024-03-25T04:21:00;8.48;;;4.65;;
77888;SDS011;67082;41.704;44.768;2024-03-25T04:23:46;8.47;;;4.23;;
77888;SDS011;67082;41.704;44.768;2024-03-25T04:26:13;8.27;;;4.55;;
77888;SDS011;67082;41.704;44.768;2024-03-25T04:28:40;7.20;;;4.75;;
77888;SDS011;67082;41.704;44.768;2024-03-25T04:31:08;7.78;;;4.82;;
77888;SDS011;67082;41.704;44.768;2024-03-25T04:33:35;8.63;;;4.72;;
77888;SDS011;67082;41.704;44.768;2024-03-25T04:36:02;9.40;;;5.43;;
77888;SDS011;67082;41.704;44.768;2024-03-25T04:38:30;8.63;;;5.22;;
77888;SDS011;67082;41.704;44.768;2024-03-25T04:40:57;10.13;;;5.30;;
77888;SDS011;67082;41.704;44.768;2024-03-25T04:43:24;6.93;;;4.70;;
77888;SDS011;67082;41.704;44.768;2024-03-25T04:45:51;9.15;;;5.30;;
77888;SDS011;67082;41.704;44.768;2024-03-25T04:48:18;7.18;;;4.72;;
77888;SDS011;67082;41.704;44.768;2024-03-25T04:50:45;8.20;;;5.20;;
77888;SDS011;67082;41.704;44.768;2024-03-25T04:53:16;7.78;;;4.50;;
77888;SDS011;67082;41.704;44.768;2024-03-25T04:55:43;8.18;;;4.72;;
77888;SDS011;67082;41.704;44.768;2024-03-25T04:58:10;7.60;;;4.40;;
77888;SDS011;67082;41.704;44.768;2024-03-25T05:00:37;9.50;;;4.70;;
77888;SDS011;67082;41.704;44.768;2024-03-25T05:03:05;7.00;;;4.20;;
77888;SDS011;67082;41.704;44.768;2024-03-25T05:05:32;8.35;;;4.30;;
77888;SDS011;67082;41.704;44.768;2024-03-25T05:07:59;7.03;;;4.75;;
77888;SDS011;67082;41.704;44.768;2024-03-25T05:10:26;6.80;;;4.05;;
77888;SDS011;67082;41.704;44.768;2024-03-25T05:12:52;6.38;;;4.15;;
77888;SDS011;67082;41.704;44.768;2024-03-25T05:15:22;6.78;;;3.90;;
77888;SDS011;67082;41.704;44.768;2024-03-25T05:17:55;6.35;;;3.78;;
77888;SDS011;67082;41.704;44.768;2024-03-25T05:20:22;7.68;;;4.22;;
77888;SDS011;67082;41.704;44.768;2024-03-25T05:22:49;8.13;;;5.00;;
77888;SDS011;67082;41.704;44.768;2024-03-25T05:25:16;7.65;;;5.13;;
77888;SDS011;67082;41.704;44.768;2024-03-25T05:27:43;5.95;;;3.95;;
77888;SDS011;67082;41.704;44.768;2024-03-25T05:30:11;7.47;;;4.97;;
77888;SDS011;67082;41.704;44.768;2024-03-25T05:32:38;6.82;;;4.90;;
77888;SDS011;67082;41.704;44.768;2024-03-25T05:35:05;9.43;;;5.78;;
77888;SDS011;67082;41.704;44.768;2024-03-25T05:37:33;9.80;;;5.65;;
77888;SDS011;67082;41.704;44.768;2024-03-25T05:40:00;12.02;;;5.30;;
77888;SDS011;67082;41.704;44.768;2024-03-25T05:42:27;8.45;;;4.75;;
77888;SDS011;67082;41.704;44.768;2024-03-25T05:44:54;7.93;;;4.28;;
77888;SDS011;67082;41.704;44.768;2024-03-25T05:47:22;3.63;;;2.10;;
77888;SDS011;67082;41.704;44.768;2024-03-25T05:49:49;3.10;;;1.90;;
77888;SDS011;67082;41.704;44.768;2024-03-25T05:52:16;2.42;;;1.50;;
77888;SDS011;67082;41.704;44.768;2024-03-25T05:54:44;3.00;;;1.65;;
77888;SDS011;67082;41.704;44.768;2024-03-25T05:57:10;1.83;;;1.17;;
77888;SDS011;67082;41.704;44.768;2024-03-25T05:59:37;2.20;;;1.20;;
77888;SDS011;67082;41.704;44.768;2024-03-25T06:02:04;2.00;;;1.30;;
77888;SDS011;67082;41.704;44.768;2024-03-25T06:04:31;1.90;;;1.10;;
77888;SDS011;67082;41.704;44.768;2024-03-25T06:06:58;3.50;;;1.15;;
77888;SDS011;67082;41.704;44.768;2024-03-25T06:09:25;2.95;;;1.10;;
77888;SDS011;67082;41.704;44.768;2024-03-25T06:11:52;2.97;;;1.42;;
77888;SDS011;67082;41.704;44.768;2024-03-25T06:14:19;2.97;;;1.60;;
77888;SDS011;67082;41.704;44.768;2024-03-25T06:16:46;2.75;;;1.92;;
77888;SDS011;67082;41.704;44.768;2024-03-25T06:19:13;3.40;;;1.77;;
77888;SDS011;67082;41.704;44.768;2024-03-25T06:21:40;2.75;;;1.70;;
77888;SDS011;67082;41.704;44.768;2024-03-25T06:24:09;3.10;;;2.00;;
77888;SDS011;67082;41.704;44.768;2024-03-25T06:26:36;7.45;;;2.67;;
77888;SDS011;67082;41.704;44.768;2024-03-25T06:29:03;2.95;;;2.05;;
77888;SDS011;67082;41.704;44.768;2024-03-25T06:31:30;2.55;;;2.00;;
77888;SDS011;67082;41.704;44.768;2024-03-25T06:34:19;4.10;;;2.45;;
77888;SDS011;67082;41.704;44.768;2024-03-25T06:36:48;4.53;;;2.30;;
77888;SDS011;67082;41.704;44.768;2024-03-25T06:39:15;4.47;;;2.20;;
77888;SDS011;67082;41.704;44.768;2024-03-25T06:41:42;3.05;;;1.50;;
77888;SDS011;67082;41.704;44.768;2024-03-25T06:44:09;5.03;;;1.70;;
77888;SDS011;67082;41.704;44.768;2024-03-25T06:46:36;2.38;;;1.50;;
77888;SDS011;67082;41.704;44.768;2024-03-25T06:49:03;3.25;;;1.65;;
77888;SDS011;67082;41.704;44.768;2024-03-25T06:51:30;2.72;;;1.58;;
77888;SDS011;67082;41.704;44.768;2024-03-25T06:53:59;2.70;;;1.40;;
77888;SDS011;67082;41.704;44.768;2024-03-25T06:56:25;2.92;;;1.50;;
77888;SDS011;67082;41.704;44.768;2024-03-25T06:58:52;2.03;;;1.30;;
77888;SDS011;67082;41.704;44.768;2024-03-25T07:01:19;2.20;;;1.33;;
77888;SDS011;67082;41.704;44.768;2024-03-25T07:03:46;4.38;;;2.25;;
77888;SDS011;67082;41.704;44.768;2024-03-25T07:06:14;2.03;;;1.30;;
77888;SDS011;67082;41.704;44.768;2024-03-25T07:08:41;3.30;;;1.50;;
77888;SDS011;67082;41.704;44.768;2024-03-25T07:11:08;3.15;;;1.33;;
77888;SDS011;67082;41.704;44.768;2024-03-25T07:13:35;4.65;;;1.40;;
77888;SDS011;67082;41.704;44.768;2024-03-25T07:16:03;2.20;;;1.30;;
77888;SDS011;67082;41.704;44.768;2024-03-25T07:18:31;4.97;;;1.20;;
77888;SDS011;67082;41.704;44.768;2024-03-25T07:20:57;3.05;;;1.42;;
77888;SDS011;67082;41.704;44.768;2024-03-25T07:23:24;2.10;;;1.00;;
77888;SDS011;67082;41.704;44.768;2024-03-25T07:25:51;1.98;;;0.95;;
77888;SDS011;67082;41.704;44.768;2024-03-25T07:28:18;2.53;;;1.20;;
77888;SDS011;67082;41.704;44.768;2024-03-25T07:30:45;3.15;;;1.27;;
77888;SDS011;67082;41.704;44.768;2024-03-25T07:33:13;2.20;;;1.40;;
77888;SDS011;67082;41.704;44.768;2024-03-25T07:35:40;2.75;;;1.60;;
77888;SDS011;67082;41.704;44.768;2024-03-25T07:38:08;3.47;;;1.77;;
77888;SDS011;67082;41.704;44.768;2024-03-25T07:40:34;3.60;;;2.17;;
77888;SDS011;67082;41.704;44.768;2024-03-25T07:43:02;3.50;;;1.40;;
77888;SDS011;67082;41.704;44.768;2024-03-25T07:45:30;2.35;;;1.60;;
77888;SDS011;67082;41.704;44.768;2024-03-25T07:47:57;1.98;;;1.17;;
77888;SDS011;67082;41.704;44.768;2024-03-25T07:50:24;2.63;;;1.50;;
77888;SDS011;67082;41.704;44.768;2024-03-25T07:52:51;2.85;;;1.60;;
77888;SDS011;67082;41.704;44.768;2024-03-25T07:55:18;3.38;;;2.10;;
77888;SDS011;67082;41.704;44.768;2024-03-25T07:57:46;3.85;;;2.08;;
77888;SDS011;67082;41.704;44.768;2024-03-25T08:00:13;4.40;;;2.30;;
77888;SDS011;67082;41.704;44.768;2024-03-25T08:02:41;4.72;;;2.47;;
77888;SDS011;67082;41.704;44.768;2024-03-25T08:05:08;3.67;;;2.58;;
77888;SDS011;67082;41.704;44.768;2024-03-25T08:07:35;3.85;;;2.50;;
77888;SDS011;67082;41.704;44.768;2024-03-25T08:10:02;8.75;;;4.03;;
77888;SDS011;67082;41.704;44.768;2024-03-25T08:12:31;9.57;;;5.45;;
77888;SDS011;67082;41.704;44.768;2024-03-25T08:14:58;9.60;;;6.47;;
77888;SDS011;67082;41.704;44.768;2024-03-25T08:17:25;11.38;;;6.85;;
77888;SDS011;67082;41.704;44.768;2024-03-25T08:20:10;9.55;;;5.65;;
77888;SDS011;67082;41.704;44.768;2024-03-25T08:22:39;10.05;;;5.93;;
77888;SDS011;67082;41.704;44.768;2024-03-25T08:25:06;11.63;;;6.65;;
77888;SDS011;67082;41.704;44.768;2024-03-25T08:27:33;10.35;;;6.55;;
77888;SDS011;67082;41.704;44.768;2024-03-25T08:30:01;10.20;;;7.13;;
77888;SDS011;67082;41.704;44.768;2024-03-25T08:32:30;11.07;;;7.63;;
77888;SDS011;67082;41.704;44.768;2024-03-25T08:34:59;11.25;;;7.57;;
77888;SDS011;67082;41.704;44.768;2024-03-25T08:37:26;12.98;;;7.05;;
77888;SDS011;67082;41.704;44.768;2024-03-25T08:39:53;11.38;;;7.60;;
77888;SDS011;67082;41.704;44.768;2024-03-25T08:42:20;12.98;;;8.75;;
77888;SDS011;67082;41.704;44.768;2024-03-25T08:44:47;15.98;;;10.15;;
77888;SDS011;67082;41.704;44.768;2024-03-25T08:47:14;13.55;;;8.43;;
77888;SDS011;67082;41.704;44.768;2024-03-25T08:49:41;9.25;;;6.78;;
77888;SDS011;67082;41.704;44.768;2024-03-25T08:52:08;13.38;;;7.18;;
77888;SDS011;67082;41.704;44.768;2024-03-25T08:54:37;11.48;;;6.38;;
77888;SDS011;67082;41.704;44.768;2024-03-25T08:57:04;11.88;;;7.43;;
77888;SDS011;67082;41.704;44.768;2024-03-25T08:59:31;9.00;;;6.25;;
77888;SDS011;67082;41.704;44.768;2024-03-25T09:01:58;8.27;;;5.70;;
77888;SDS011;67082;41.704;44.768;2024-03-25T09:04:25;7.47;;;4.90;;
77888;SDS011;67082;41.704;44.768;2024-03-25T09:06:52;10.02;;;5.70;;
77888;SDS011;67082;41.704;44.768;2024-03-25T09:09:21;9.52;;;5.95;;
77888;SDS011;67082;41.704;44.768;2024-03-25T09:12:06;11.05;;;6.00;;
77888;SDS011;67082;41.704;44.768;2024-03-25T09:14:33;11.35;;;6.55;;
77888;SDS011;67082;41.704;44.768;2024-03-25T09:17:02;11.43;;;6.53;;
77888;SDS011;67082;41.704;44.768;2024-03-25T09:19:28;10.05;;;5.88;;
77888;SDS011;67082;41.704;44.768;2024-03-25T09:21:55;12.18;;;6.30;;
77888;SDS011;67082;41.704;44.768;2024-03-25T09:24:22;8.60;;;5.47;;
77888;SDS011;67082;41.704;44.768;2024-03-25T09:26:50;9.30;;;5.97;;
77888;SDS011;67082;41.704;44.768;2024-03-25T09:29:18;3.95;;;2.50;;
77888;SDS011;67082;41.704;44.768;2024-03-25T09:31:45;6.20;;;3.70;;
77888;SDS011;67082;41.704;44.768;2024-03-25T09:34:14;7.10;;;4.00;;
77888;SDS011;67082;41.704;44.768;2024-03-25T09:36:41;6.50;;;4.22;;
77888;SDS011;67082;41.704;44.768;2024-03-25T09:39:08;6.78;;;3.40;;
77888;SDS011;67082;41.704;44.768;2024-03-25T09:41:35;6.22;;;3.70;;
77888;SDS011;67082;41.704;44.768;2024-03-25T09:44:03;8.15;;;3.60;;
77888;SDS011;67082;41.704;44.768;2024-03-25T09:46:32;3.45;;;2.30;;
77888;SDS011;67082;41.704;44.768;2024-03-25T09:49:00;3.95;;;2.63;;
77888;SDS011;67082;41.704;44.768;2024-03-25T09:51:31;4.75;;;2.90;;
77888;SDS011;67082;41.704;44.768;2024-03-25T09:53:59;4.55;;;2.55;;
77888;SDS011;67082;41.704;44.768;2024-03-25T09:56:26;4.85;;;2.83;;
77888;SDS011;67082;41.704;44.768;2024-03-25T09:58:53;3.95;;;1.85;;
77888;SDS011;67082;41.704;44.768;2024-03-25T10:01:20;4.40;;;2.30;;
77888;SDS011;67082;41.704;44.768;2024-03-25T10:03:47;4.03;;;2.42;;
77888;SDS011;67082;41.704;44.768;2024-03-25T10:06:15;4.47;;;2.97;;
77888;SDS011;67082;41.704;44.768;2024-03-25T10:08:44;5.30;;;3.13;;
77888;SDS011;67082;41.704;44.768;2024-03-25T10:11:12;4.03;;;2.15;;
77888;SDS011;67082;41.704;44.768;2024-03-25T10:13:42;4.13;;;2.88;;
77888;SDS011;67082;41.704;44.768;2024-03-25T10:16:10;57.58;;;34.40;;
77888;SDS011;67082;41.704;44.768;2024-03-25T10:18:37;6.40;;;3.90;;
77888;SDS011;67082;41.704;44.768;2024-03-25T10:21:04;6.25;;;3.60;;
77888;SDS011;67082;41.704;44.768;2024-03-25T10:23:33;6.03;;;3.95;;
77888;SDS011;67082;41.704;44.768;2024-03-25T10:26:04;7.22;;;4.50;;
77888;SDS011;67082;41.704;44.768;2024-03-25T10:28:31;7.55;;;4.55;;
77888;SDS011;67082;41.704;44.768;2024-03-25T10:31:04;7.13;;;4.55;;
77888;SDS011;67082;41.704;44.768;2024-03-25T10:33:32;10.15;;;4.88;;
77888;SDS011;67082;41.704;44.768;2024-03-25T10:35:59;6.28;;;4.55;;
77888;SDS011;67082;41.704;44.768;2024-03-25T10:38:29;7.53;;;5.10;;
77888;SDS011;67082;41.704;44.768;2024-03-25T10:40:57;8.43;;;4.15;;
77888;SDS011;67082;41.704;44.768;2024-03-25T10:43:25;4.97;;;3.42;;
77888;SDS011;67082;41.704;44.768;2024-03-25T10:45:58;4.88;;;3.30;;
77888;SDS011;67082;41.704;44.768;2024-03-25T10:48:29;6.55;;;3.60;;
77888;SDS011;67082;41.704;44.768;2024-03-25T10:51:01;4.07;;;3.08;;
77888;SDS011;67082;41.704;44.768;2024-03-25T10:53:29;4.80;;;3.13;;
77888;SDS011;67082;41.704;44.768;2024-03-25T10:55:58;5.15;;;3.45;;
77888;SDS011;67082;41.704;44.768;2024-03-25T10:58:27;6.32;;;4.22;;
77888;SDS011;67082;41.704;44.768;2024-03-25T11:00:56;6.28;;;4.28;;
77888;SDS011;67082;41.704;44.768;2024-03-25T11:03:23;6.35;;;3.92;;
77888;SDS011;67082;41.704;44.768;2024-03-25T11:05:52;4.93;;;3.67;;
77888;SDS011;67082;41.704;44.768;2024-03-25T11:08:20;6.75;;;3.65;;
77888;SDS011;67082;41.704;44.768;2024-03-25T11:10:59;5.28;;;3.55;;
77888;SDS011;67082;41.704;44.768;2024-03-25T11:13:26;4.60;;;2.85;;
77888;SDS011;67082;41.704;44.768;2024-03-25T11:15:56;5.05;;;3.55;;
77888;SDS011;67082;41.704;44.768;2024-03-25T11:18:25;5.50;;;3.47;;
77888;SDS011;67082;41.704;44.768;2024-03-25T11:21:01;6.47;;;3.95;;
77888;SDS011;67082;41.704;44.768;2024-03-25T11:23:35;6.20;;;4.15;;
77888;SDS011;67082;41.704;44.768;2024-03-25T11:26:04;8.60;;;4.10;;
77888;SDS011;67082;41.704;44.768;2024-03-25T11:28:31;5.90;;;4.27;;
77888;SDS011;67082;41.704;44.768;2024-03-25T11:31:04;6.78;;;4.22;;
77888;SDS011;67082;41.704;44.768;2024-03-25T11:33:36;6.63;;;4.20;;
77888;SDS011;67082;41.704;44.768;2024-03-25T11:36:06;6.82;;;4.53;;
77888;SDS011;67082;41.704;44.768;2024-03-25T11:38:34;5.82;;;4.05;;
77888;SDS011;67082;41.704;44.768;2024-03-25T11:41:02;8.05;;;3.92;;
77888;SDS011;67082;41.704;44.768;2024-03-25T11:43:29;7.55;;;3.92;;
77888;SDS011;67082;41.704;44.768;2024-03-25T11:45:57;6.47;;;4.45;;
77888;SDS011;67082;41.704;44.768;2024-03-25T11:48:23;6.18;;;4.43;;
77888;SDS011;67082;41.704;44.768;2024-03-25T11:50:51;6.45;;;4.40;;
77888;SDS011;67082;41.704;44.768;2024-03-25T11:53:17;6.53;;;4.28;;
77888;SDS011;67082;41.704;44.768;2024-03-25T11:55:48;7.35;;;4.60;;
77888;SDS011;67082;41.704;44.768;2024-03-25T11:58:15;6.22;;;4.57;;
77888;SDS011;67082;41.704;44.768;2024-03-25T12:00:46;6.25;;;4.50;;
77888;SDS011;67082;41.704;44.768;2024-03-25T12:03:18;7.97;;;5.18;;
77888;SDS011;67082;41.704;44.768;2024-03-25T12:05:45;6.85;;;4.93;;
77888;SDS011;67082;41.704;44.768;2024-03-25T12:08:14;8.45;;;4.82;;
77888;SDS011;67082;41.704;44.768;2024-03-25T12:10:42;6.45;;;4.68;;
77888;SDS011;67082;41.704;44.768;2024-03-25T12:13:27;7.30;;;4.50;;
77888;SDS011;67082;41.704;44.768;2024-03-25T12:15:54;9.55;;;4.70;;
77888;SDS011;67082;41.704;44.768;2024-03-25T12:18:22;8.68;;;4.25;;
77888;SDS011;67082;41.704;44.768;2024-03-25T12:20:49;6.40;;;4.30;;
77888;SDS011;67082;41.704;44.768;2024-03-25T12:23:16;6.22;;;4.38;;
77888;SDS011;67082;41.704;44.768;2024-03-25T12:25:48;6.97;;;4.38;;
77888;SDS011;67082;41.704;44.768;2024-03-25T12:28:16;6.45;;;4.10;;
77888;SDS011;67082;41.704;44.768;2024-03-25T12:30:52;8.23;;;3.70;;
77888;SDS011;67082;41.704;44.768;2024-03-25T12:33:24;5.78;;;3.80;;
77888;SDS011;67082;41.704;44.768;2024-03-25T12:35:52;5.03;;;3.67;;
77888;SDS011;67082;41.704;44.768;2024-03-25T12:38:29;5.75;;;3.60;;
77888;SDS011;67082;41.704;44.768;2024-03-25T12:41:07;4.55;;;3.47;;
77888;SDS011;67082;41.704;44.768;2024-03-25T12:43:36;6.07;;;3.30;;
77888;SDS011;67082;41.704;44.768;2024-03-25T12:46:08;5.38;;;3.00;;
77888;SDS011;67082;41.704;44.768;2024-03-25T12:48:36;4.68;;;3.10;;
77888;SDS011;67082;41.704;44.768;2024-03-25T12:51:04;4.90;;;3.65;;
77888;SDS011;67082;41.704;44.768;2024-03-25T12:53:31;5.32;;;3.42;;
77888;SDS011;67082;41.704;44.768;2024-03-25T12:55:58;5.53;;;3.72;;
77888;SDS011;67082;41.704;44.768;2024-03-25T12:58:25;6.38;;;3.55;;
77888;SDS011;67082;41.704;44.768;2024-03-25T13:00:52;5.00;;;3.20;;
77888;SDS011;67082;41.704;44.768;2024-03-25T13:03:19;5.55;;;3.63;;
77888;SDS011;67082;41.704;44.768;2024-03-25T13:05:47;6.63;;;3.55;;
77888;SDS011;67082;41.704;44.768;2024-03-25T13:08:14;7.13;;;3.30;;
77888;SDS011;67082;41.704;44.768;2024-03-25T13:10:41;4.97;;;3.30;;
77888;SDS011;67082;41.704;44.768;2024-03-25T13:13:08;5.35;;;3.70;;
77888;SDS011;67082;41.704;44.768;2024-03-25T13:15:35;5.35;;;3.30;;
77888;SDS011;67082;41.704;44.768;2024-03-25T13:18:05;6.10;;;3.50;;
77888;SDS011;67082;41.704;44.768;2024-03-25T13:20:32;6.55;;;3.60;;
77888;SDS011;67082;41.704;44.768;2024-03-25T13:22:59;4.80;;;3.50;;
77888;SDS011;67082;41.704;44.768;2024-03-25T13:25:28;5.32;;;3.50;;
77888;SDS011;67082;41.704;44.768;2024-03-25T13:27:55;5.88;;;3.88;;
77888;SDS011;67082;41.704;44.768;2024-03-25T13:30:23;5.90;;;3.92;;
77888;SDS011;67082;41.704;44.768;2024-03-25T13:32:51;6.63;;;4.05;;
77888;SDS011;67082;41.704;44.768;2024-03-25T13:35:18;7.25;;;4.70;;
77888;SDS011;67082;41.704;44.768;2024-03-25T13:37:48;7.93;;;4.97;;
77888;SDS011;67082;41.704;44.768;2024-03-25T13:40:15;6.50;;;4.40;;
77888;SDS011;67082;41.704;44.768;2024-03-25T13:42:42;7.38;;;4.68;;
77888;SDS011;67082;41.704;44.768;2024-03-25T13:45:09;9.50;;;5.78;;
77888;SDS011;67082;41.704;44.768;2024-03-25T13:47:36;9.57;;;5.65;;
77888;SDS011;67082;41.704;44.768;2024-03-25T13:50:04;10.32;;;5.05;;
77888;SDS011;67082;41.704;44.768;2024-03-25T13:52:34;8.77;;;4.97;;
77888;SDS011;67082;41.704;44.768;2024-03-25T13:55:02;11.52;;;5.57;;
77888;SDS011;67082;41.704;44.768;2024-03-25T13:57:31;8.93;;;5.70;;
77888;SDS011;67082;41.704;44.768;2024-03-25T13:59:58;10.95;;;6.30;;
77888;SDS011;67082;41.704;44.768;2024-03-25T14:02:25;9.13;;;6.07;;
77888;SDS011;67082;41.704;44.768;2024-03-25T14:04:55;10.75;;;6.40;;
77888;SDS011;67082;41.704;44.768;2024-03-25T14:07:22;9.77;;;5.93;;
77888;SDS011;67082;41.704;44.768;2024-03-25T14:09:49;11.35;;;6.40;;
77888;SDS011;67082;41.704;44.768;2024-03-25T14:12:16;10.45;;;6.80;;
77888;SDS011;67082;41.704;44.768;2024-03-25T14:14:44;10.18;;;6.63;;
77888;SDS011;67082;41.704;44.768;2024-03-25T14:17:11;12.85;;;7.07;;
77888;SDS011;67082;41.704;44.768;2024-03-25T14:19:38;11.52;;;6.78;;
77888;SDS011;67082;41.704;44.768;2024-03-25T14:22:05;10.68;;;6.30;;
77888;SDS011;67082;41.704;44.768;2024-03-25T14:24:32;9.32;;;5.97;;
77888;SDS011;67082;41.704;44.768;2024-03-25T14:26:59;10.38;;;6.07;;
77888;SDS011;67082;41.704;44.768;2024-03-25T14:29:26;19.13;;;10.45;;
77888;SDS011;67082;41.704;44.768;2024-03-25T14:31:53;25.73;;;14.93;;
77888;SDS011;67082;41.704;44.768;2024-03-25T14:34:20;16.02;;;7.97;;
77888;SDS011;67082;41.704;44.768;2024-03-25T14:36:47;7.78;;;5.65;;